Time;durP1;ratioP1;P1;durP2;ratioP2;P2;SDS_P1;SDS_P2;PMS_P1;PMS_P2;Temp;Humidity;BMP_temperature;BMP_pressure;BME280_temperature;BME280_humidity;BME280_pressure;Samples;Min_cycle;Max_cycle;Signal;HPM_P1;HPM_P2
2022/12/21 00:02:13;;;;;;;3.92;1.00;;;;;;;;;;5105159;28;20031;-46
2022/12/21 00:04:42;;;;;;;4.00;0.90;;;;;;;;;;5085717;28;20263;-49
2022/12/21 00:07:11;;;;;;;1.63;0.90;;;;;;;;;;5087054;28;20590;-44
2022/12/21 00:09:38;;;;;;;2.20;1.10;;;;;;;;;;5105347;28;20032;-45
2022/12/21 00:12:04;;;;;;;3.33;1.20;;;;;;;;;;5105586;28;20103;-45
2022/12/21 00:14:30;;;;;;;2.15;0.70;;;;;;;;;;5102843;28;20035;-46
2022/12/21 00:16:56;;;;;;;1.92;0.85;;;;;;;;;;5084604;28;20097;-45
2022/12/21 00:19:22;;;;;;;2.80;1.20;;;;;;;;;;5085474;28;20487;-45
2022/12/21 00:21:48;;;;;;;0.73;0.68;;;;;;;;;;5085030;28;20024;-47
2022/12/21 00:24:14;;;;;;;2.15;0.80;;;;;;;;;;5085094;28;20097;-46
2022/12/21 00:26:40;;;;;;;1.67;1.05;;;;;;;;;;5066203;28;20071;-46
2022/12/21 00:29:07;;;;;;;2.22;0.98;;;;;;;;;;5101742;28;20027;-48
2022/12/21 00:31:35;;;;;;;1.48;1.10;;;;;;;;;;5089183;28;20485;-47
2022/12/21 00:34:01;;;;;;;1.35;0.85;;;;;;;;;;5090680;28;20467;-47
2022/12/21 00:36:28;;;;;;;1.60;0.80;;;;;;;;;;5109288;28;20093;-45
2022/12/21 00:38:55;;;;;;;5.07;0.90;;;;;;;;;;5109532;28;20026;-45
2022/12/21 00:41:22;;;;;;;1.50;0.90;;;;;;;;;;5109658;28;20066;-47
2022/12/21 00:43:49;;;;;;;2.35;0.98;;;;;;;;;;5107880;28;20019;-47
2022/12/21 00:46:17;;;;;;;2.35;0.90;;;;;;;;;;5109071;28;20040;-47
2022/12/21 00:48:44;;;;;;;1.85;1.23;;;;;;;;;;5108495;28;20027;-46
2022/12/21 00:51:12;;;;;;;0.95;0.80;;;;;;;;;;5109195;28;20375;-44
2022/12/21 00:53:38;;;;;;;2.75;0.70;;;;;;;;;;5108925;28;20501;-46
2022/12/21 00:56:05;;;;;;;1.40;0.80;;;;;;;;;;5109180;28;20059;-47
2022/12/21 00:58:33;;;;;;;1.58;0.80;;;;;;;;;;5103456;28;20110;-45
2022/12/21 01:01:00;;;;;;;0.55;0.50;;;;;;;;;;5108400;28;20207;-49
2022/12/21 01:03:27;;;;;;;3.33;1.10;;;;;;;;;;5108686;28;20027;-46
2022/12/21 06:10:27;;;;;;;2.75;1.20;;;;;;;;;;5101695;27;20112;-45
2022/12/21 06:12:53;;;;;;;1.45;0.88;;;;;;;;;;5106683;28;20039;-45
2022/12/21 06:15:19;;;;;;;1.70;0.90;;;;;;;;;;5105949;28;20402;-46
2022/12/21 06:17:45;;;;;;;1.67;1.02;;;;;;;;;;5083105;28;20032;-46
2022/12/21 06:20:11;;;;;;;3.30;0.95;;;;;;;;;;5067689;28;20028;-47
2022/12/21 06:22:37;;;;;;;1.83;0.88;;;;;;;;;;5067841;28;20025;-44
2022/12/21 06:25:04;;;;;;;1.90;0.93;;;;;;;;;;5067866;28;20047;-45
2022/12/21 06:27:30;;;;;;;1.50;0.90;;;;;;;;;;5067713;28;20509;-44
2022/12/21 06:29:56;;;;;;;3.60;1.00;;;;;;;;;;5066942;28;20032;-45
2022/12/21 06:32:23;;;;;;;3.92;1.30;;;;;;;;;;5068017;28;20032;-45
2022/12/21 06:34:49;;;;;;;3.50;1.17;;;;;;;;;;5067635;28;20032;-45
2022/12/21 06:37:16;;;;;;;2.05;1.02;;;;;;;;;;5067888;28;20020;-47
2022/12/21 06:39:42;;;;;;;2.53;0.90;;;;;;;;;;5070107;28;20115;-46
2022/12/21 06:42:09;;;;;;;1.23;0.85;;;;;;;;;;5068312;28;20120;-45
2022/12/21 06:44:35;;;;;;;1.38;0.88;;;;;;;;;;5067291;28;20029;-47
2022/12/21 06:47:01;;;;;;;3.03;1.15;;;;;;;;;;5078369;28;20024;-47
2022/12/21 06:49:28;;;;;;;1.15;0.80;;;;;;;;;;5082224;28;20124;-45
2022/12/21 06:51:54;;;;;;;5.70;1.23;;;;;;;;;;5067304;28;20028;-45
2022/12/21 06:54:21;;;;;;;2.22;0.98;;;;;;;;;;5067309;28;20035;-45
2022/12/21 06:56:47;;;;;;;1.67;0.90;;;;;;;;;;5067368;28;20021;-45
2022/12/21 06:59:13;;;;;;;1.35;0.85;;;;;;;;;;5067016;28;20039;-46
2022/12/21 07:01:39;;;;;;;0.88;0.70;;;;;;;;;;5082895;28;20087;-45
2022/12/21 07:04:05;;;;;;;2.65;1.00;;;;;;;;;;5105780;28;20020;-48
2022/12/21 07:06:31;;;;;;;2.17;0.70;;;;;;;;;;5102822;28;20087;-43
2022/12/21 07:08:58;;;;;;;0.90;0.73;;;;;;;;;;5089377;28;20032;-44
2022/12/21 07:11:25;;;;;;;1.25;0.50;;;;;;;;;;5107497;28;20023;-45
2022/12/21 07:13:52;;;;;;;0.82;0.52;;;;;;;;;;5094965;28;20503;-44
2022/12/21 07:16:18;;;;;;;0.50;0.50;;;;;;;;;;5085648;28;20028;-47
2022/12/21 07:18:44;;;;;;;1.02;0.63;;;;;;;;;;5085470;28;20036;-45
2022/12/21 07:21:11;;;;;;;0.50;0.50;;;;;;;;;;5087991;28;20028;-45
2022/12/21 07:23:38;;;;;;;0.50;0.50;;;;;;;;;;5088346;28;20088;-45
2022/12/21 07:26:08;;;;;;;0.50;0.50;;;;;;;;;;5088303;28;20065;-46
2022/12/21 07:28:34;;;;;;;0.47;0.47;;;;;;;;;;5088138;28;20028;-47
2022/12/21 07:31:04;;;;;;;1.13;0.60;;;;;;;;;;5088211;28;20102;-44
2022/12/21 07:33:30;;;;;;;0.70;0.57;;;;;;;;;;5087942;28;20423;-45
2022/12/21 07:36:04;;;;;;;0.73;0.50;;;;;;;;;;5088044;28;20035;-45
2022/12/21 07:38:31;;;;;;;1.07;0.73;;;;;;;;;;5087976;28;20380;-42
2022/12/21 07:40:57;;;;;;;0.68;0.63;;;;;;;;;;5079043;28;20029;-44
2022/12/21 07:43:24;;;;;;;0.70;0.65;;;;;;;;;;5080102;28;20088;-43
2022/12/21 07:45:50;;;;;;;1.65;0.82;;;;;;;;;;5086974;28;20928;-45
2022/12/21 07:48:16;;;;;;;2.13;0.95;;;;;;;;;;5088222;28;20058;-44
2022/12/21 07:50:42;;;;;;;1.00;0.80;;;;;;;;;;5087112;28;20478;-47
2022/12/21 07:53:08;;;;;;;1.85;0.90;;;;;;;;;;5085173;28;20023;-45
2022/12/21 07:55:34;;;;;;;1.17;0.90;;;;;;;;;;5087353;28;20039;-43
2022/12/21 07:58:00;;;;;;;2.42;1.10;;;;;;;;;;5086711;28;20383;-43
2022/12/21 08:00:26;;;;;;;1.85;1.48;;;;;;;;;;5076527;28;20032;-43
2022/12/21 08:02:52;;;;;;;2.25;1.25;;;;;;;;;;5081520;28;20058;-43
2022/12/21 08:05:19;;;;;;;1.85;1.38;;;;;;;;;;5081627;28;20575;-43
2022/12/21 08:07:46;;;;;;;1.38;1.00;;;;;;;;;;5085797;28;20107;-46
2022/12/21 08:10:12;;;;;;;2.17;1.10;;;;;;;;;;5086699;28;20110;-43
2022/12/21 08:12:38;;;;;;;1.55;1.23;;;;;;;;;;5078445;28;20032;-43
2022/12/21 08:15:04;;;;;;;2.13;1.30;;;;;;;;;;5087841;28;20097;-42
2022/12/21 08:17:30;;;;;;;1.77;1.02;;;;;;;;;;5068842;28;20055;-44
2022/12/21 08:19:56;;;;;;;1.60;1.27;;;;;;;;;;5086617;28;20411;-45
2022/12/21 08:22:23;;;;;;;1.88;1.30;;;;;;;;;;5087504;28;20028;-43
2022/12/21 08:24:49;;;;;;;2.25;1.40;;;;;;;;;;5086287;28;20453;-43
2022/12/21 08:27:16;;;;;;;1.83;1.25;;;;;;;;;;5072496;28;20028;-43
2022/12/21 08:29:42;;;;;;;1.50;1.40;;;;;;;;;;5086279;28;20032;-46
2022/12/21 08:32:09;;;;;;;1.67;1.02;;;;;;;;;;5078602;28;20028;-43
2022/12/21 08:34:36;;;;;;;1.58;1.05;;;;;;;;;;5070331;28;20036;-44
2022/12/21 08:37:02;;;;;;;0.95;0.90;;;;;;;;;;5085846;28;20103;-42
2022/12/21 08:39:28;;;;;;;1.75;1.02;;;;;;;;;;5088820;28;20032;-43
2022/12/21 08:41:54;;;;;;;3.60;1.27;;;;;;;;;;5088170;28;20028;-42
2022/12/21 08:44:20;;;;;;;1.23;1.10;;;;;;;;;;5088576;28;20032;-43
2022/12/21 08:46:46;;;;;;;1.15;1.05;;;;;;;;;;5088466;28;20787;-43
2022/12/21 08:49:12;;;;;;;1.17;0.90;;;;;;;;;;5088379;28;20042;-43
2022/12/21 08:51:39;;;;;;;1.83;0.90;;;;;;;;;;5086774;28;20473;-43
2022/12/21 08:54:06;;;;;;;1.83;0.95;;;;;;;;;;5091165;28;20020;-43
2022/12/21 08:56:32;;;;;;;1.98;0.90;;;;;;;;;;5091643;28;20120;-43
2022/12/21 08:59:03;;;;;;;1.10;0.77;;;;;;;;;;5099874;28;20478;-44
2022/12/21 09:01:29;;;;;;;0.95;0.80;;;;;;;;;;5089775;28;20613;-43
2022/12/21 09:03:55;;;;;;;0.82;0.70;;;;;;;;;;5096531;28;20034;-45
2022/12/21 09:06:21;;;;;;;0.82;0.70;;;;;;;;;;5088355;28;20039;-43
2022/12/21 09:08:47;;;;;;;2.13;1.00;;;;;;;;;;5072336;28;20437;-43
2022/12/21 09:11:15;;;;;;;1.98;0.90;;;;;;;;;;5084076;28;20356;-45
2022/12/21 09:13:41;;;;;;;1.48;0.80;;;;;;;;;;5078166;28;20548;-42
2022/12/21 09:16:17;;;;;;;1.92;0.90;;;;;;;;;;5120853;27;20787;-46
2022/12/21 09:18:44;;;;;;;1.65;0.80;;;;;;;;;;5114594;27;20040;-47
2022/12/21 09:21:11;;;;;;;1.80;1.15;;;;;;;;;;5106283;28;20134;-44
2022/12/21 09:23:37;;;;;;;1.42;1.00;;;;;;;;;;5098434;28;20429;-45
2022/12/21 09:26:04;;;;;;;2.13;1.17;;;;;;;;;;5097068;28;20028;-46
2022/12/21 09:28:30;;;;;;;1.85;1.48;;;;;;;;;;5096424;28;20028;-46
2022/12/21 09:30:57;;;;;;;1.85;1.30;;;;;;;;;;5084372;28;20173;-47
2022/12/21 09:33:23;;;;;;;2.20;1.42;;;;;;;;;;5109791;28;20104;-45
2022/12/21 09:35:52;;;;;;;1.50;1.20;;;;;;;;;;5108358;28;20027;-47
2022/12/21 09:38:19;;;;;;;1.63;1.10;;;;;;;;;;5108802;28;20391;-45
2022/12/21 09:40:46;;;;;;;1.33;1.00;;;;;;;;;;5110080;28;20027;-45
2022/12/21 09:43:27;;;;;;;1.23;1.00;;;;;;;;;;5108941;28;20790;-45
2022/12/21 09:46:05;;;;;;;2.13;1.23;;;;;;;;;;5108075;28;20102;-47
2022/12/21 09:48:36;;;;;;;1.27;0.90;;;;;;;;;;5109389;28;20020;-47
2022/12/21 09:51:09;;;;;;;1.48;1.27;;;;;;;;;;5110563;28;20062;-46
2022/12/21 09:53:44;;;;;;;1.63;1.00;;;;;;;;;;5108268;28;20028;-46
2022/12/21 09:56:15;;;;;;;1.40;0.85;;;;;;;;;;5106537;28;20031;-48
2022/12/21 09:58:48;;;;;;;1.40;1.00;;;;;;;;;;5108882;28;20039;-45
2022/12/21 10:01:37;;;;;;;2.30;0.77;;;;;;;;;;5106527;28;20043;-45
2022/12/21 10:04:15;;;;;;;1.35;0.70;;;;;;;;;;5107838;28;20546;-46
2022/12/21 10:07:00;;;;;;;0.85;0.82;;;;;;;;;;5109053;28;20035;-45
2022/12/21 10:09:26;;;;;;;;;;;;;;;;;;5105073;28;20030;-47
2022/12/21 10:12:15;;;;;;;1.05;0.70;;;;;;;;;;5108664;28;19916;-45
2022/12/21 10:15:00;;;;;;;1.10;0.80;;;;;;;;;;5107732;28;20027;-46
2022/12/21 10:17:26;;;;;;;0.80;0.80;;;;;;;;;;5107900;28;20066;-45
2022/12/21 10:19:52;;;;;;;0.75;0.70;;;;;;;;;;5108431;28;20075;-46
2022/12/21 10:22:25;;;;;;;0.77;0.77;;;;;;;;;;5108012;28;20036;-45
2022/12/21 10:24:58;;;;;;;1.23;0.75;;;;;;;;;;5108446;28;20062;-45
2022/12/21 10:27:30;;;;;;;1.33;0.90;;;;;;;;;;5108345;28;20044;-48
2022/12/21 10:29:58;;;;;;;1.08;0.60;;;;;;;;;;5108552;28;20048;-45
2022/12/21 10:32:28;;;;;;;1.27;0.98;;;;;;;;;;5108026;28;20393;-44
2022/12/21 10:34:55;;;;;;;1.00;0.73;;;;;;;;;;5088043;28;20085;-46
2022/12/21 10:37:22;;;;;;;1.48;0.88;;;;;;;;;;5088579;28;20524;-45
2022/12/21 10:39:58;;;;;;;1.08;0.90;;;;;;;;;;5088149;28;20028;-45
2022/12/21 10:42:36;;;;;;;1.55;0.77;;;;;;;;;;5088449;28;20055;-45
2022/12/21 10:45:03;;;;;;;1.17;0.82;;;;;;;;;;5088059;28;20486;-45
2022/12/21 10:47:29;;;;;;;1.25;0.73;;;;;;;;;;5088725;28;20183;-45
2022/12/21 10:50:03;;;;;;;0.60;0.60;;;;;;;;;;5088258;28;20612;-46
2022/12/21 10:52:37;;;;;;;1.55;0.95;;;;;;;;;;5088450;28;20107;-45
2022/12/21 10:55:05;;;;;;;1.30;0.90;;;;;;;;;;5087797;28;20064;-45
2022/12/21 10:57:35;;;;;;;0.60;0.60;;;;;;;;;;5088080;28;20110;-48
2022/12/21 11:00:05;;;;;;;0.82;0.70;;;;;;;;;;5087770;28;20020;-44
2022/12/21 11:02:34;;;;;;;0.82;0.82;;;;;;;;;;5098210;28;20034;-45
2022/12/21 11:05:00;;;;;;;0.88;0.60;;;;;;;;;;5106861;28;20393;-44
2022/12/21 11:07:28;;;;;;;1.00;0.57;;;;;;;;;;5104057;28;20024;-45
2022/12/21 11:10:01;;;;;;;1.27;0.80;;;;;;;;;;5100702;28;20527;-45
2022/12/21 11:12:27;;;;;;;2.25;0.70;;;;;;;;;;5105737;28;20020;-47
2022/12/21 11:14:54;;;;;;;1.30;0.68;;;;;;;;;;5105902;28;20067;-45
2022/12/21 11:17:23;;;;;;;0.77;0.52;;;;;;;;;;5103537;28;20058;-45
2022/12/21 11:19:50;;;;;;;3.17;0.90;;;;;;;;;;5104204;28;20032;-45
2022/12/21 11:22:19;;;;;;;1.92;0.90;;;;;;;;;;5100854;28;20034;-45
2022/12/21 11:24:46;;;;;;;1.95;0.80;;;;;;;;;;5101563;28;20497;-44
2022/12/21 11:27:12;;;;;;;1.20;0.75;;;;;;;;;;5100715;28;20342;-44
2022/12/21 11:29:38;;;;;;;1.65;0.65;;;;;;;;;;5097773;28;20368;-48
2022/12/21 11:32:08;;;;;;;0.88;0.50;;;;;;;;;;5099950;28;20061;-45
2022/12/21 11:34:34;;;;;;;0.63;0.60;;;;;;;;;;5100726;28;20144;-46
2022/12/21 11:37:03;;;;;;;1.35;0.60;;;;;;;;;;5096362;28;20043;-47
2022/12/21 11:39:30;;;;;;;1.85;1.10;;;;;;;;;;5104728;28;20037;-46
2022/12/21 11:41:56;;;;;;;1.15;0.60;;;;;;;;;;5089399;28;20055;-46
2022/12/21 11:44:23;;;;;;;0.60;0.60;;;;;;;;;;5102558;28;20370;-45
2022/12/21 11:46:55;;;;;;;0.85;0.80;;;;;;;;;;5103243;28;20589;-46
2022/12/21 11:49:24;;;;;;;1.75;0.93;;;;;;;;;;5099709;28;20020;-45
2022/12/21 11:52:09;;;;;;;2.35;0.73;;;;;;;;;;5099301;27;20030;-46
2022/12/21 11:54:41;;;;;;;1.25;0.70;;;;;;;;;;5097275;28;20039;-46
2022/12/21 11:57:26;;;;;;;1.75;0.80;;;;;;;;;;5097973;28;20031;-46
2022/12/21 12:00:03;;;;;;;1.25;0.90;;;;;;;;;;5098409;28;20427;-46
2022/12/21 12:02:35;;;;;;;1.63;0.93;;;;;;;;;;5098875;28;20082;-46
2022/12/21 12:05:21;;;;;;;1.67;0.70;;;;;;;;;;5098625;28;20052;-47
2022/12/21 12:07:47;;;;;;;1.48;0.77;;;;;;;;;;5108168;28;20024;-47
2022/12/21 12:10:22;;;;;;;0.98;0.63;;;;;;;;;;5102709;28;20124;-46
2022/12/21 12:13:07;;;;;;;1.00;0.73;;;;;;;;;;5103982;28;20019;-46
2022/12/21 12:15:42;;;;;;;1.52;0.70;;;;;;;;;;5101203;28;20410;-46
2022/12/21 12:18:14;;;;;;;1.23;0.80;;;;;;;;;;5102858;28;20051;-47
2022/12/21 12:20:43;;;;;;;0.73;0.68;;;;;;;;;;5100330;28;20043;-46
2022/12/21 12:23:28;;;;;;;0.77;0.60;;;;;;;;;;5097455;28;20027;-46
2022/12/21 12:25:57;;;;;;;0.60;0.50;;;;;;;;;;5099730;28;20091;-46
2022/12/21 12:28:41;;;;;;;1.60;0.60;;;;;;;;;;5100686;28;20043;-46
2022/12/21 12:31:07;;;;;;;0.63;0.50;;;;;;;;;;5105034;28;20040;-45
2022/12/21 12:33:53;;;;;;;0.40;0.40;;;;;;;;;;5105746;28;20047;-46
2022/12/21 12:36:20;;;;;;;1.63;0.55;;;;;;;;;;5101552;28;20031;-48
2022/12/21 12:38:52;;;;;;;0.90;0.80;;;;;;;;;;5101199;28;20027;-46
2022/12/21 12:41:21;;;;;;;1.35;0.70;;;;;;;;;;5101654;28;20075;-44
2022/12/21 12:43:52;;;;;;;0.88;0.52;;;;;;;;;;5102511;28;20031;-44
2022/12/21 12:46:21;;;;;;;0.88;0.80;;;;;;;;;;5073120;28;20031;-43
2022/12/21 12:49:10;;;;;;;0.77;0.75;;;;;;;;;;5091374;28;20028;-43
2022/12/21 12:51:39;;;;;;;0.60;0.60;;;;;;;;;;5058726;28;20043;-44
2022/12/21 12:54:20;;;;;;;0.63;0.52;;;;;;;;;;5111622;28;20024;-44
2022/12/21 12:56:49;;;;;;;0.40;0.40;;;;;;;;;;5111462;28;20020;-44
2022/12/21 12:59:22;;;;;;;1.00;0.65;;;;;;;;;;5109618;28;20035;-45
2022/12/21 13:01:51;;;;;;;1.02;0.60;;;;;;;;;;5090976;28;20024;-43
2022/12/21 13:04:34;;;;;;;1.20;0.68;;;;;;;;;;5095108;28;20032;-44
2022/12/21 13:07:12;;;;;;;0.68;0.50;;;;;;;;;;5111642;28;20032;-45
2022/12/21 13:09:42;;;;;;;0.70;0.70;;;;;;;;;;5109787;28;20110;-43
2022/12/21 13:12:20;;;;;;;1.85;0.73;;;;;;;;;;5111203;28;20024;-44
2022/12/21 13:15:16;;;;;;;0.52;0.52;;;;;;;;;;5109250;28;20080;-44
2022/12/21 13:17:54;;;;;;;0.57;0.50;;;;;;;;;;5020668;28;20104;-44
2022/12/21 13:20:22;;;;;;;0.80;0.60;;;;;;;;;;5102964;28;21035;-45
2022/12/21 13:22:54;;;;;;;0.57;0.50;;;;;;;;;;5122283;27;20070;-43
2022/12/21 13:25:25;;;;;;;1.10;0.60;;;;;;;;;;5105724;27;20024;-45
2022/12/21 13:27:53;;;;;;;1.52;0.77;;;;;;;;;;5104165;28;20058;-46
2022/12/21 13:30:20;;;;;;;1.00;0.70;;;;;;;;;;5110832;28;20070;-43
2022/12/21 13:32:49;;;;;;;0.95;0.70;;;;;;;;;;5100958;28;20028;-44
2022/12/21 13:35:15;;;;;;;1.30;0.75;;;;;;;;;;5096893;28;20023;-45
2022/12/21 13:37:45;;;;;;;0.50;0.50;;;;;;;;;;5110266;28;20118;-43
2022/12/21 13:40:34;;;;;;;1.50;0.80;;;;;;;;;;5075228;28;20394;-44
2022/12/21 13:43:15;;;;;;;0.85;0.80;;;;;;;;;;5098709;28;20023;-43
2022/12/21 13:45:51;;;;;;;0.80;0.80;;;;;;;;;;5105097;28;20085;-43
2022/12/21 13:48:22;;;;;;;3.20;1.13;;;;;;;;;;5108754;28;20051;-43
2022/12/21 13:50:55;;;;;;;1.35;0.90;;;;;;;;;;5110505;28;20074;-43
2022/12/21 13:53:21;;;;;;;2.00;1.05;;;;;;;;;;5110126;28;20027;-44
2022/12/21 13:55:56;;;;;;;2.30;1.00;;;;;;;;;;5110076;28;20441;-45
2022/12/21 13:58:25;;;;;;;2.50;1.15;;;;;;;;;;5107436;28;21140;-44
2022/12/21 14:00:54;;;;;;;2.78;0.98;;;;;;;;;;5113768;27;20025;-43
2022/12/21 14:03:26;;;;;;;2.35;0.80;;;;;;;;;;5131072;27;20031;-45
2022/12/21 14:06:11;;;;;;;2.08;0.93;;;;;;;;;;5109648;27;20181;-45
2022/12/21 14:09:00;;;;;;;1.13;0.77;;;;;;;;;;5089577;28;20094;-43
2022/12/21 14:11:35;;;;;;;1.33;0.93;;;;;;;;;;5089291;28;20025;-44
2022/12/21 14:14:21;;;;;;;1.60;0.90;;;;;;;;;;5091077;28;20027;-44
2022/12/21 14:16:56;;;;;;;1.38;0.82;;;;;;;;;;5104224;28;20103;-43
2022/12/21 14:19:24;;;;;;;2.00;1.08;;;;;;;;;;5094137;28;20444;-44
2022/12/21 14:21:50;;;;;;;1.10;1.00;;;;;;;;;;5089512;28;20020;-44
2022/12/21 14:24:26;;;;;;;1.02;0.80;;;;;;;;;;5089926;28;20039;-44
2022/12/21 14:27:15;;;;;;;0.75;0.60;;;;;;;;;;5100385;28;20047;-44
2022/12/21 14:29:42;;;;;;;2.28;1.00;;;;;;;;;;5109248;28;20031;-46
2022/12/21 14:32:15;;;;;;;1.27;0.73;;;;;;;;;;5088196;28;20386;-43
2022/12/21 14:34:42;;;;;;;0.60;0.60;;;;;;;;;;5099982;28;20023;-46
2022/12/21 14:37:10;;;;;;;0.70;0.50;;;;;;;;;;5103473;28;20289;-44
2022/12/21 14:39:46;;;;;;;1.10;0.70;;;;;;;;;;5101191;27;20031;-43
2022/12/21 14:42:30;;;;;;;0.40;0.40;;;;;;;;;;5098921;28;20043;-44
2022/12/21 14:45:12;;;;;;;0.50;0.50;;;;;;;;;;5101798;28;20019;-44
2022/12/21 14:47:38;;;;;;;1.02;0.55;;;;;;;;;;5100766;28;20567;-44
2022/12/21 14:50:24;;;;;;;0.52;0.52;;;;;;;;;;5107386;28;20019;-46
2022/12/21 14:53:09;;;;;;;0.43;0.43;;;;;;;;;;5080938;28;20084;-45
2022/12/21 14:55:41;;;;;;;0.40;0.40;;;;;;;;;;5104811;28;20088;-44
2022/12/21 14:58:10;;;;;;;1.10;0.60;;;;;;;;;;5110231;28;20491;-44
2022/12/21 15:00:36;;;;;;;1.10;0.65;;;;;;;;;;5109953;28;20028;-46
2022/12/21 15:03:13;;;;;;;2.17;0.80;;;;;;;;;;5099743;28;20546;-44
2022/12/21 15:05:42;;;;;;;0.60;0.60;;;;;;;;;;5105846;28;20480;-44
2022/12/21 15:08:16;;;;;;;0.60;0.60;;;;;;;;;;5107829;28;20214;-44
2022/12/21 15:10:45;;;;;;;0.47;0.40;;;;;;;;;;5106928;28;20386;-43
2022/12/21 15:13:33;;;;;;;1.10;0.60;;;;;;;;;;5109467;28;20035;-46
2022/12/21 15:16:05;;;;;;;0.50;0.50;;;;;;;;;;5109277;28;20051;-46
2022/12/21 15:18:39;;;;;;;0.60;0.52;;;;;;;;;;5098341;28;20411;-44
2022/12/21 15:21:24;;;;;;;0.60;0.57;;;;;;;;;;5106383;28;20114;-47
2022/12/21 15:23:51;;;;;;;0.70;0.70;;;;;;;;;;5108781;28;20039;-45
2022/12/21 15:26:24;;;;;;;0.55;0.50;;;;;;;;;;5102378;27;20027;-46
2022/12/21 15:28:51;;;;;;;0.63;0.63;;;;;;;;;;5103539;28;20035;-44
2022/12/21 15:31:29;;;;;;;0.98;0.60;;;;;;;;;;5105423;28;20028;-43
2022/12/21 15:33:56;;;;;;;0.80;0.70;;;;;;;;;;5102756;28;20039;-46
2022/12/21 15:36:30;;;;;;;0.73;0.60;;;;;;;;;;5099334;28;20156;-47
2022/12/21 15:38:56;;;;;;;0.95;0.77;;;;;;;;;;5098019;28;20123;-46
2022/12/21 15:41:48;;;;;;;1.25;0.93;;;;;;;;;;5108386;27;20566;-43
2022/12/21 15:44:18;;;;;;;1.63;0.80;;;;;;;;;;5108475;27;20047;-47
2022/12/21 15:46:52;;;;;;;1.02;0.80;;;;;;;;;;5108427;28;20027;-44
2022/12/21 15:49:27;;;;;;;1.10;0.60;;;;;;;;;;5108405;28;20096;-45
2022/12/21 15:51:53;;;;;;;1.75;0.80;;;;;;;;;;5102935;28;20027;-44
2022/12/21 15:54:20;;;;;;;1.20;0.88;;;;;;;;;;5106306;28;20047;-44
2022/12/21 15:56:56;;;;;;;0.95;0.75;;;;;;;;;;5108062;28;20034;-46
2022/12/21 15:59:34;;;;;;;1.05;0.77;;;;;;;;;;5107413;28;20475;-46
2022/12/21 16:02:00;;;;;;;0.65;0.63;;;;;;;;;;5106467;28;20024;-43
2022/12/21 16:04:26;;;;;;;0.63;0.55;;;;;;;;;;5107185;28;20405;-45
2022/12/21 16:06:54;;;;;;;1.13;0.70;;;;;;;;;;5106879;28;20031;-45
2022/12/21 16:09:21;;;;;;;1.45;0.70;;;;;;;;;;5106789;28;20055;-44
2022/12/21 16:11:48;;;;;;;0.88;0.68;;;;;;;;;;5106657;28;20027;-45
2022/12/21 16:14:16;;;;;;;1.65;0.88;;;;;;;;;;5106803;28;20089;-45
2022/12/21 16:16:56;;;;;;;1.27;0.90;;;;;;;;;;5106626;28;20060;-43
2022/12/21 16:19:29;;;;;;;1.10;0.80;;;;;;;;;;5106650;28;20469;-45
2022/12/21 16:21:59;;;;;;;0.95;0.70;;;;;;;;;;5106499;28;20061;-44
2022/12/21 16:24:26;;;;;;;1.33;0.85;;;;;;;;;;5106984;28;20031;-44
2022/12/21 16:26:53;;;;;;;1.30;0.95;;;;;;;;;;5104533;28;20031;-44
2022/12/21 16:29:24;;;;;;;1.83;0.98;;;;;;;;;;5106229;28;20160;-43
2022/12/21 16:31:50;;;;;;;1.40;1.02;;;;;;;;;;5107804;28;20230;-43
2022/12/21 16:34:22;;;;;;;1.60;1.00;;;;;;;;;;5108033;28;20134;-44
2022/12/21 16:36:49;;;;;;;1.02;0.90;;;;;;;;;;5107209;28;20753;-43
2022/12/21 16:39:16;;;;;;;1.23;0.70;;;;;;;;;;5106597;28;20032;-45
2022/12/21 16:41:43;;;;;;;0.90;0.80;;;;;;;;;;5106771;28;20024;-47
2022/12/21 16:44:12;;;;;;;1.45;1.00;;;;;;;;;;5106678;28;20060;-44
2022/12/21 16:46:41;;;;;;;2.53;0.95;;;;;;;;;;5106277;28;20094;-45
2022/12/21 16:49:25;;;;;;;2.15;1.58;;;;;;;;;;5106594;28;20123;-47
2022/12/21 16:51:52;;;;;;;1.90;1.52;;;;;;;;;;5106127;28;20099;-46
2022/12/21 16:54:19;;;;;;;2.40;1.50;;;;;;;;;;5106438;28;20030;-47
2022/12/21 16:56:47;;;;;;;2.88;1.70;;;;;;;;;;5106321;28;20059;-44
2022/12/21 16:59:19;;;;;;;1.77;1.40;;;;;;;;;;5106170;28;20106;-44
2022/12/21 17:02:00;;;;;;;1.67;1.30;;;;;;;;;;5106060;28;20020;-44
2022/12/21 17:04:33;;;;;;;2.10;1.40;;;;;;;;;;5106526;28;20046;-45
2022/12/21 17:06:59;;;;;;;2.17;1.60;;;;;;;;;;5106374;28;20092;-45
2022/12/21 17:09:30;;;;;;;2.70;1.67;;;;;;;;;;5106894;28;20028;-44
2022/12/21 17:11:58;;;;;;;2.53;1.70;;;;;;;;;;5106208;28;20055;-45
2022/12/21 17:14:25;;;;;;;1.90;1.52;;;;;;;;;;5109347;28;20031;-44
2022/12/21 17:17:11;;;;;;;2.20;1.50;;;;;;;;;;5109842;28;20328;-45
2022/12/21 17:19:59;;;;;;;2.65;1.48;;;;;;;;;;5109743;28;20034;-44
2022/12/21 17:22:26;;;;;;;2.13;1.40;;;;;;;;;;5092558;28;20035;-44
2022/12/21 17:25:07;;;;;;;1.92;1.40;;;;;;;;;;5108898;28;20077;-43
2022/12/21 17:27:52;;;;;;;1.25;1.10;;;;;;;;;;5109632;28;20016;-43
2022/12/21 17:30:19;;;;;;;2.78;1.40;;;;;;;;;;5109476;28;20116;-46
2022/12/21 17:32:45;;;;;;;1.45;1.02;;;;;;;;;;5109685;28;20198;-45
2022/12/21 17:35:12;;;;;;;1.58;1.20;;;;;;;;;;5109463;28;20110;-44
2022/12/21 17:37:39;;;;;;;1.75;1.08;;;;;;;;;;5109520;28;20024;-44
2022/12/21 17:40:11;;;;;;;2.10;1.40;;;;;;;;;;5109265;28;20131;-45
2022/12/21 17:42:37;;;;;;;2.70;1.90;;;;;;;;;;5109603;28;20107;-45
2022/12/21 17:45:04;;;;;;;2.95;2.05;;;;;;;;;;5109086;28;20106;-45
2022/12/21 17:47:31;;;;;;;3.08;2.00;;;;;;;;;;5109525;28;20019;-45
2022/12/21 17:49:57;;;;;;;2.65;1.55;;;;;;;;;;5109498;28;20074;-47
2022/12/21 17:52:23;;;;;;;2.83;1.80;;;;;;;;;;5109553;28;20023;-44
2022/12/21 17:54:50;;;;;;;3.00;2.22;;;;;;;;;;5109774;28;20028;-45
2022/12/21 17:57:16;;;;;;;3.63;2.30;;;;;;;;;;5109413;28;20529;-44
2022/12/21 17:59:42;;;;;;;2.80;2.08;;;;;;;;;;5109599;28;20027;-45
2022/12/21 18:02:13;;;;;;;3.13;1.98;;;;;;;;;;5109395;28;20030;-45
2022/12/21 18:04:39;;;;;;;3.05;2.10;;;;;;;;;;5109429;28;20028;-45
2022/12/21 18:07:14;;;;;;;3.70;2.40;;;;;;;;;;5109170;28;20537;-44
2022/12/21 18:09:40;;;;;;;3.55;2.33;;;;;;;;;;5109347;28;20107;-45
2022/12/21 18:12:13;;;;;;;3.55;2.30;;;;;;;;;;5108920;28;20106;-43
2022/12/21 18:14:40;;;;;;;3.60;2.40;;;;;;;;;;5109324;28;20028;-47
2022/12/21 18:17:07;;;;;;;3.35;2.22;;;;;;;;;;5108930;28;20032;-47
2022/12/21 18:19:34;;;;;;;3.05;2.03;;;;;;;;;;5109202;28;20111;-47
2022/12/21 18:22:00;;;;;;;2.03;1.65;;;;;;;;;;5108768;28;20024;-47
2022/12/21 18:24:26;;;;;;;3.35;2.20;;;;;;;;;;5108334;28;20038;-44
2022/12/21 18:26:52;;;;;;;5.43;2.83;;;;;;;;;;5108827;28;20501;-44
2022/12/21 18:29:18;;;;;;;4.50;3.35;;;;;;;;;;5108972;28;20027;-45
2022/12/21 18:31:46;;;;;;;6.35;3.80;;;;;;;;;;5108600;28;20102;-44
2022/12/21 18:34:14;;;;;;;4.57;3.30;;;;;;;;;;5108395;28;20024;-44
2022/12/21 18:36:40;;;;;;;5.95;4.05;;;;;;;;;;5108302;28;20028;-46
2022/12/21 18:39:08;;;;;;;4.60;2.95;;;;;;;;;;5107071;28;20032;-44
2022/12/21 18:41:34;;;;;;;5.45;3.85;;;;;;;;;;5100446;28;20533;-45
2022/12/21 18:44:00;;;;;;;4.85;3.38;;;;;;;;;;5103882;28;20035;-44
2022/12/21 18:46:31;;;;;;;4.80;3.03;;;;;;;;;;5106027;28;20028;-44
2022/12/21 18:49:01;;;;;;;6.03;3.40;;;;;;;;;;5108262;28;20401;-46
2022/12/21 18:51:32;;;;;;;4.32;3.20;;;;;;;;;;5108876;28;20077;-45
2022/12/21 18:53:59;;;;;;;4.90;3.47;;;;;;;;;;5108978;28;20024;-46
2022/12/21 18:56:29;;;;;;;3.78;2.60;;;;;;;;;;5108570;28;20035;-44
2022/12/21 18:58:55;;;;;;;4.53;3.13;;;;;;;;;;5108930;28;20031;-46
2022/12/21 19:01:32;;;;;;;3.03;2.13;;;;;;;;;;5105630;28;20028;-45
2022/12/21 19:03:58;;;;;;;3.42;2.30;;;;;;;;;;5109617;28;20155;-46
2022/12/21 19:06:27;;;;;;;5.90;3.53;;;;;;;;;;5104627;28;20100;-48
2022/12/21 19:08:55;;;;;;;4.60;3.08;;;;;;;;;;5105859;28;20034;-49
2022/12/21 19:11:23;;;;;;;4.82;2.90;;;;;;;;;;5106040;28;20098;-47
2022/12/21 19:13:49;;;;;;;4.88;2.90;;;;;;;;;;5107849;28;20058;-45
2022/12/21 19:16:19;;;;;;;5.05;2.50;;;;;;;;;;5106085;28;20149;-46
2022/12/21 19:18:46;;;;;;;4.45;2.38;;;;;;;;;;5085399;28;20390;-49
2022/12/21 19:21:22;;;;;;;3.78;2.40;;;;;;;;;;5079649;28;20027;-47
2022/12/21 19:23:48;;;;;;;4.78;2.90;;;;;;;;;;5087548;28;20032;-48
2022/12/21 19:26:15;;;;;;;5.30;2.80;;;;;;;;;;5104558;28;20507;-46
2022/12/21 19:28:41;;;;;;;4.65;2.70;;;;;;;;;;5106075;28;20080;-48
2022/12/21 19:31:08;;;;;;;7.15;3.58;;;;;;;;;;5105008;28;20030;-49
2022/12/21 19:33:35;;;;;;;7.28;3.97;;;;;;;;;;5107006;28;20023;-47
2022/12/21 19:36:01;;;;;;;6.18;4.13;;;;;;;;;;5105123;28;20034;-46
2022/12/21 19:38:28;;;;;;;7.63;4.50;;;;;;;;;;5107073;27;20036;-46
2022/12/21 19:40:57;;;;;;;7.65;4.45;;;;;;;;;;5105193;28;20020;-47
2022/12/21 19:43:24;;;;;;;6.68;4.22;;;;;;;;;;5106169;28;20028;-46
2022/12/21 19:45:51;;;;;;;6.63;4.07;;;;;;;;;;5101099;28;20040;-48
2022/12/21 19:48:35;;;;;;;9.50;4.68;;;;;;;;;;5103830;28;20028;-46
2022/12/21 19:51:02;;;;;;;8.30;4.82;;;;;;;;;;5107083;28;20152;-46
2022/12/21 19:53:28;;;;;;;7.03;3.85;;;;;;;;;;5100309;28;20020;-45
2022/12/21 19:55:55;;;;;;;6.57;3.85;;;;;;;;;;5107391;28;20055;-46
2022/12/21 19:58:28;;;;;;;5.55;3.35;;;;;;;;;;5106922;28;20036;-49
2022/12/21 20:00:54;;;;;;;5.55;2.92;;;;;;;;;;5097869;28;20031;-46
2022/12/21 20:03:20;;;;;;;3.78;2.33;;;;;;;;;;5089319;28;21117;-47
2022/12/21 20:05:46;;;;;;;5.32;2.95;;;;;;;;;;5107237;28;20024;-46